Terminal Aerodrome Forecast
Issued by NWS

Home | Current Version | Previous Version | Text Only | Print | Product List | Glossary On
Versions: 1 2 3 4 5 6 7 8 9 10 11 12 13 14 15 16 17 18 19
000
FTUS45 KTFX 281732
TAFBZN
TAF
KBZN 281732Z 2818/2918 VRB05KT P6SM VCSH SCT030 BKN050
      TEMPO 2819/2823 -SHRASN BKN025
     FM290100 VRB05KT P6SM SCT025 BKN040
     FM290600 VRB05KT P6SM VCFG SCT010 BKN030=

USA.gov is the U.S. government's official web portal to all federal, state and local government web resources and services.